createdAt,value
2023-05-12T00:13:00.852Z,2.2
2023-05-12T00:28:21.843Z,1.7
2023-05-12T00:43:42.790Z,1.7
2023-05-12T00:59:03.759Z,1.7
2023-05-12T01:14:24.700Z,1.9
2023-05-12T01:29:45.692Z,2.2
2023-05-12T01:45:05.662Z,1.9
2023-05-12T02:00:26.636Z,2.1
2023-05-12T02:15:47.599Z,1.7
2023-05-12T02:31:08.563Z,2.1
2023-05-12T02:46:29.521Z,2.2
2023-05-12T03:01:50.447Z,1.9
2023-05-12T03:17:11.365Z,1.9
2023-05-12T03:32:32.301Z,2.4
2023-05-12T03:47:53.206Z,2.6
2023-05-12T04:03:14.139Z,2.8
2023-05-12T04:18:35.048Z,2.8
2023-05-12T04:33:55.986Z,2.4
2023-05-12T04:49:16.909Z,3.2
2023-05-12T05:04:36.842Z,2.4
2023-05-12T05:19:57.761Z,3
2023-05-12T05:35:18.674Z,2.8
2023-05-12T05:50:39.580Z,2.4
2023-05-12T06:06:00.492Z,3.2
2023-05-12T06:21:21.451Z,2.6
2023-05-12T06:22:42.508Z,2.5
2023-05-12T06:24:03.606Z,2.7
2023-05-12T06:25:24.650Z,3.2
2023-05-12T06:26:45.736Z,3.7
2023-05-12T06:28:06.816Z,2.7
2023-05-12T06:29:27.892Z,2.8
2023-05-12T06:32:10.061Z,3.5
2023-05-12T06:33:30.162Z,3.3
2023-05-12T06:34:51.208Z,3.4
2023-05-12T06:36:12.276Z,3.6
2023-05-12T06:37:33.361Z,3.2
2023-05-12T06:38:54.465Z,3.2
2023-05-12T06:40:15.552Z,3
2023-05-12T06:41:36.629Z,3.1
2023-05-12T06:42:57.702Z,3.1
2023-05-12T06:44:18.767Z,2.7
2023-05-12T06:45:39.857Z,2.9
2023-05-12T06:47:00.934Z,2.9
2023-05-12T06:48:22.018Z,3.6
2023-05-12T06:49:43.094Z,3
2023-05-12T06:51:03.192Z,2.9
2023-05-12T06:52:24.256Z,2.7
2023-05-12T06:53:45.347Z,2.7
2023-05-12T06:55:06.382Z,2.5
2023-05-12T06:56:27.505Z,2.5
2023-05-12T06:57:48.586Z,3
2023-05-12T06:59:09.620Z,2.6
2023-05-12T07:00:30.698Z,2.6
2023-05-12T07:01:51.801Z,2.8
2023-05-12T07:03:12.860Z,3
2023-05-12T07:04:33.956Z,3
2023-05-12T07:05:55.047Z,2.5
2023-05-12T07:07:16.117Z,2.4
2023-05-12T07:08:36.177Z,2.6
2023-05-12T07:09:57.301Z,2.3
2023-05-12T07:11:18.371Z,2.7
2023-05-12T07:12:39.457Z,2.6
2023-05-12T07:14:00.523Z,2.4
2023-05-12T07:15:21.598Z,2.9
2023-05-12T07:16:42.682Z,2.7
2023-05-12T07:18:03.745Z,3
2023-05-12T07:19:24.830Z,2.5
2023-05-12T07:20:45.899Z,2.5
2023-05-12T07:22:06.944Z,2.7
2023-05-12T07:23:28.017Z,2.7
2023-05-12T07:24:49.115Z,2.5
2023-05-12T07:26:09.218Z,2.9
2023-05-12T07:27:30.309Z,2.6
2023-05-12T07:28:51.375Z,2.5
2023-05-12T07:30:12.467Z,2.2
2023-05-12T07:31:33.527Z,2.6
2023-05-12T07:32:54.619Z,2.3
2023-05-12T07:34:15.659Z,2.1
2023-05-12T07:35:36.737Z,2.2
2023-05-12T07:36:57.815Z,2.7
2023-05-12T07:38:18.932Z,2.6
2023-05-12T07:39:39.975Z,2.7
2023-05-12T07:41:01.070Z,2.4
2023-05-12T07:42:22.117Z,2.7
2023-05-12T07:43:42.244Z,2.2
2023-05-12T07:45:03.290Z,2.6
2023-05-12T07:46:24.391Z,2.5
2023-05-12T07:47:45.450Z,2.5
2023-05-12T07:49:06.558Z,2.3
2023-05-12T07:50:27.638Z,2.1
2023-05-12T07:51:48.707Z,2.1
2023-05-12T07:53:09.780Z,2.1
2023-05-12T07:54:30.830Z,2.2
2023-05-12T07:55:51.949Z,2.2
2023-05-12T07:57:12.979Z,1.8
2023-05-12T07:58:34.108Z,2.3
2023-05-12T07:59:55.172Z,2.2
2023-05-12T08:01:15.240Z,2.3
2023-05-12T08:02:36.344Z,2.1
2023-05-12T08:03:57.427Z,2.2
2023-05-12T08:05:18.487Z,2.1
2023-05-12T08:06:39.536Z,2.3
2023-05-12T08:08:00.609Z,2.4
2023-05-12T08:09:21.728Z,2.1
2023-05-12T08:10:42.795Z,2.1
2023-05-12T08:12:03.854Z,2.2
2023-05-12T08:13:24.937Z,2.5
2023-05-12T08:14:46.034Z,2.2
2023-05-12T08:16:07.078Z,2.4
2023-05-12T08:17:28.187Z,2
2023-05-12T08:18:48.250Z,2.4
2023-05-12T08:20:09.357Z,2.5
2023-05-12T08:21:30.415Z,2.6
2023-05-12T08:22:51.515Z,2.6
2023-05-12T08:24:12.595Z,2.4
2023-05-12T08:25:33.640Z,2.2
2023-05-12T08:26:54.750Z,2.5
2023-05-12T08:28:15.803Z,2.6
2023-05-12T08:29:36.906Z,2.3
2023-05-12T08:30:57.946Z,2.3
2023-05-12T08:32:19.061Z,2.5
2023-05-12T08:33:40.098Z,2.1
2023-05-12T08:35:01.210Z,2.3
2023-05-12T08:36:21.265Z,2.4
2023-05-12T08:37:42.388Z,2.8
2023-05-12T08:39:03.441Z,2.6
2023-05-12T08:40:24.511Z,2.5
2023-05-12T08:41:45.631Z,2.4
2023-05-12T08:43:06.703Z,2.7
2023-05-12T08:44:27.788Z,2.5
2023-05-12T08:45:48.855Z,2.6
2023-05-12T08:47:09.936Z,2.5
2023-05-12T08:48:30.977Z,2.8
2023-05-12T08:49:52.083Z,2.3
2023-05-12T08:51:13.164Z,3.3
2023-05-12T08:52:34.241Z,2.6
2023-05-12T08:53:54.297Z,2.4
2023-05-12T08:55:15.387Z,2.5
2023-05-12T08:56:36.464Z,2.6
2023-05-12T08:57:57.575Z,2.4
2023-05-12T08:59:18.645Z,2.4
2023-05-12T09:00:39.718Z,2.6
2023-05-12T09:02:00.799Z,2.5
2023-05-12T09:03:21.837Z,2.4
2023-05-12T09:04:42.922Z,2.6
2023-05-12T09:06:04.027Z,2.5
2023-05-12T09:07:25.074Z,2.2
2023-05-12T09:08:46.147Z,2.3
2023-05-12T09:10:07.266Z,2.3
2023-05-12T09:11:28.460Z,2.6
2023-05-12T09:12:49.560Z,2.3
2023-05-12T09:14:10.621Z,2.2
2023-05-12T09:15:31.701Z,2.4
2023-05-12T09:16:52.782Z,2.2
2023-05-12T09:18:12.883Z,2.5
2023-05-12T09:19:33.922Z,2.2
2023-05-12T09:20:55.028Z,2.7
2023-05-12T09:22:16.000Z,2.3
2023-05-12T09:23:37.155Z,2.4
2023-05-12T09:24:58.290Z,2.2
2023-05-12T09:26:19.356Z,2.4
2023-05-12T09:27:40.424Z,2.2
2023-05-12T09:29:01.512Z,2.7
2023-05-12T09:30:22.582Z,2.2
2023-05-12T09:31:43.660Z,2.5
2023-05-12T09:33:04.701Z,2.2
2023-05-12T09:34:25.827Z,2.2
2023-05-12T09:35:45.914Z,3.3
2023-05-12T09:37:06.978Z,2.1
2023-05-12T09:38:28.076Z,2.1
2023-05-12T09:39:49.142Z,2.5
2023-05-12T09:41:10.230Z,2.3
2023-05-12T09:42:31.294Z,2.5
2023-05-12T09:43:52.333Z,2.1
2023-05-12T09:45:13.456Z,1.9
2023-05-12T09:46:34.519Z,2.2
2023-05-12T09:47:55.609Z,2
2023-05-12T09:49:16.645Z,2.1
2023-05-12T09:50:37.750Z,1.8
2023-05-12T09:51:58.856Z,2.1
2023-05-12T09:53:18.937Z,2.1
2023-05-12T09:54:40.029Z,1.9
2023-05-12T09:56:01.093Z,2.1
2023-05-12T09:57:22.179Z,2.4
2023-05-12T09:58:43.256Z,2.1
2023-05-12T10:00:04.324Z,1.9
2023-05-12T10:01:25.403Z,2.3
2023-05-12T10:02:46.487Z,2.1
2023-05-12T10:04:07.562Z,2.1
2023-05-12T10:05:28.643Z,2
2023-05-12T10:06:49.677Z,2.1
2023-05-12T10:08:10.792Z,2.1
2023-05-12T10:09:31.868Z,1.9
2023-05-12T10:10:51.968Z,2.1
2023-05-12T10:12:13.049Z,2.1
2023-05-12T10:13:34.078Z,2.4
2023-05-12T10:14:55.195Z,2.2
2023-05-12T10:16:16.267Z,2.1
2023-05-12T10:17:37.349Z,2.6
2023-05-12T10:18:58.388Z,2.2
2023-05-12T10:20:19.514Z,2.2
2023-05-12T10:21:40.581Z,2.1
2023-05-12T10:23:01.650Z,2.6
2023-05-12T10:24:22.732Z,2.3
2023-05-12T10:25:43.767Z,1.9
2023-05-12T10:27:04.849Z,2.1
2023-05-12T10:28:25.977Z,2.5
2023-05-12T10:29:46.017Z,2.4
2023-05-12T10:31:07.134Z,2.1
2023-05-12T10:32:28.176Z,2.1
2023-05-12T10:33:49.301Z,2.3
2023-05-12T10:35:10.375Z,2.3
2023-05-12T10:36:31.443Z,2
2023-05-12T10:37:52.530Z,2.1
2023-05-12T10:39:13.600Z,2.1
2023-05-12T10:40:34.633Z,1.9
2023-05-12T10:41:55.751Z,2
2023-05-12T10:43:16.788Z,2.1
2023-05-12T10:44:37.906Z,2
2023-05-12T10:45:58.991Z,2
2023-05-12T10:47:19.040Z,2
2023-05-12T10:48:40.157Z,2
2023-05-12T10:50:01.241Z,2.1
2023-05-12T10:51:22.280Z,2.3
2023-05-12T10:52:43.397Z,2.3
2023-05-12T10:54:04.470Z,2.3
2023-05-12T10:55:25.546Z,2.2
2023-05-12T10:56:46.616Z,2.1
2023-05-12T10:58:07.707Z,2
2023-05-12T10:59:28.770Z,1.8
2023-05-12T11:00:49.867Z,1.9
2023-05-12T11:02:10.938Z,1.9
2023-05-12T11:03:32.004Z,1.9
2023-05-12T11:04:52.111Z,1.9
2023-05-12T11:06:13.197Z,1.9
2023-05-12T11:07:34.270Z,2
2023-05-12T11:08:55.340Z,1.8
2023-05-12T11:10:16.413Z,1.7
2023-05-12T11:11:37.498Z,1.9
2023-05-12T11:12:58.562Z,1.9
2023-05-12T11:14:19.652Z,1.8
2023-05-12T11:15:40.690Z,1.9
2023-05-12T11:17:01.819Z,2.4
2023-05-12T11:18:22.875Z,1.7
2023-05-12T11:19:43.965Z,2.1
2023-05-12T11:21:05.039Z,1.7
2023-05-12T11:22:25.129Z,1.9
2023-05-12T11:23:46.170Z,1.5
2023-05-12T11:25:07.245Z,2
2023-05-12T11:26:28.365Z,1.7
2023-05-12T11:27:49.409Z,1.6
2023-05-12T11:29:10.516Z,1.7
2023-05-12T11:30:31.595Z,1.7
2023-05-12T11:31:52.672Z,1.5
2023-05-12T11:33:13.719Z,1.5
2023-05-12T11:34:34.826Z,1.7
2023-05-12T11:35:55.867Z,1.6
2023-05-12T11:37:16.989Z,1.6
2023-05-12T11:38:38.061Z,1.5
2023-05-12T11:39:58.145Z,1.6
2023-05-12T11:41:19.234Z,1.6
2023-05-12T11:42:40.302Z,1.5
2023-05-12T11:44:01.345Z,1.6
2023-05-12T11:45:22.418Z,1.3
2023-05-12T11:46:43.556Z,1.7
2023-05-12T11:48:04.570Z,1.5
2023-05-12T11:49:25.702Z,1.6
2023-05-12T11:50:46.770Z,1.6
2023-05-12T11:52:07.849Z,1.6
2023-05-12T11:53:28.938Z,1.8
2023-05-12T11:54:50.014Z,1.8
2023-05-12T11:56:11.083Z,1.5
2023-05-12T11:57:31.179Z,1.6
2023-05-12T11:58:52.258Z,1.5
2023-05-12T12:00:13.284Z,1.8
2023-05-12T12:01:34.410Z,1.6
2023-05-12T12:02:55.490Z,1.8
2023-05-12T12:04:16.563Z,1.7
2023-05-12T12:05:37.649Z,1.7
2023-05-12T12:06:58.724Z,1.5
2023-05-12T12:08:19.758Z,1.6
2023-05-12T12:09:40.866Z,1.6
2023-05-12T12:11:01.952Z,1.8
2023-05-12T12:12:22.983Z,1.5
2023-05-12T12:13:44.118Z,1.7
2023-05-12T12:15:04.154Z,1.5
2023-05-12T12:16:25.242Z,2
2023-05-12T12:17:46.307Z,1.9
2023-05-12T12:19:07.444Z,1.6
2023-05-12T12:20:28.517Z,1.9
2023-05-12T12:21:49.588Z,1.8
2023-05-12T12:23:10.624Z,1.8
2023-05-12T12:24:31.746Z,1.9
2023-05-12T12:25:52.835Z,1.6
2023-05-12T12:27:13.912Z,1.8
2023-05-12T12:28:34.984Z,1.9
2023-05-12T12:29:56.064Z,1.7
2023-05-12T12:31:17.139Z,2.1
2023-05-12T12:32:37.234Z,2
2023-05-12T12:33:58.306Z,1.8
2023-05-12T12:35:19.374Z,2.1
2023-05-12T12:36:40.472Z,1.8
2023-05-12T12:38:01.534Z,1.7
2023-05-12T12:39:22.610Z,2
2023-05-12T12:40:43.643Z,1.7
2023-05-12T12:42:04.777Z,1.7
2023-05-12T12:43:25.849Z,1.8
2023-05-12T12:44:46.907Z,1.9
2023-05-12T12:46:07.981Z,1.7
2023-05-12T12:47:29.056Z,1.8
2023-05-12T12:48:50.144Z,1.7
2023-05-12T12:50:10.236Z,2
2023-05-12T12:51:31.301Z,2
2023-05-12T12:52:52.385Z,1.7
2023-05-12T12:54:13.455Z,1.9
2023-05-12T12:55:34.529Z,2
2023-05-12T12:56:55.619Z,2.2
2023-05-12T12:58:16.686Z,1.7
2023-05-12T12:59:37.775Z,1.9
2023-05-12T13:00:58.847Z,1.7
2023-05-12T13:02:19.929Z,1.8
2023-05-12T13:03:40.949Z,1.6
2023-05-12T13:05:02.073Z,1.7
2023-05-12T13:06:23.160Z,1.5
2023-05-12T13:09:04.316Z,1.7
2023-05-12T13:10:25.400Z,1.3
2023-05-12T13:11:46.464Z,1.5
2023-05-12T13:13:07.478Z,1.8
2023-05-12T13:14:28.610Z,1.9
2023-05-12T13:15:49.660Z,1.6
2023-05-12T13:17:10.696Z,1.7
2023-05-12T13:18:31.807Z,2
2023-05-12T13:19:52.878Z,1.6
2023-05-12T13:21:13.958Z,1.6
2023-05-12T13:22:35.015Z,1.7
2023-05-12T13:23:56.096Z,1.9
2023-05-12T13:25:16.181Z,1.8
2023-05-12T13:26:37.249Z,1.8
2023-05-12T13:27:58.283Z,1.7
2023-05-12T13:29:19.405Z,1.9
2023-05-12T13:30:40.444Z,1.9
2023-05-12T13:33:22.634Z,1.8
2023-05-12T13:34:43.725Z,1.9
2023-05-12T13:36:04.795Z,2
2023-05-12T13:37:25.877Z,2.1
2023-05-12T13:38:46.952Z,1.8
2023-05-12T13:40:08.044Z,1.8
2023-05-12T13:41:29.113Z,1.9
2023-05-12T13:42:49.158Z,1.7
2023-05-12T13:44:10.283Z,1.9
2023-05-12T13:45:31.361Z,1.8
2023-05-12T13:46:52.391Z,1.7
2023-05-12T13:48:13.519Z,2.1
2023-05-12T13:49:33.564Z,1.7
2023-05-12T13:50:54.707Z,1.6
2023-05-12T13:52:15.730Z,1.8
2023-05-12T13:53:36.836Z,1.6
2023-05-12T13:54:57.911Z,1.6
2023-05-12T13:56:18.982Z,1.6
2023-05-12T13:57:40.059Z,1.5
2023-05-12T13:59:01.122Z,1.6
2023-05-12T14:00:22.133Z,1.9
2023-05-12T14:01:43.251Z,1.5
2023-05-12T14:03:04.335Z,1.8
2023-05-12T14:04:25.418Z,1.6
2023-05-12T14:05:46.447Z,1.8
2023-05-12T14:07:06.567Z,1.9
2023-05-12T14:08:27.638Z,1.7
2023-05-12T14:09:48.668Z,2
2023-05-12T14:11:09.741Z,1.8
2023-05-12T14:12:30.867Z,1.5
2023-05-12T14:13:51.890Z,1.8
2023-05-12T14:15:13.030Z,1.7
2023-05-12T14:16:34.105Z,1.7
2023-05-12T14:17:55.000Z,2
2023-05-12T14:19:16.263Z,1.9
2023-05-12T14:20:37.326Z,2
2023-05-12T14:21:58.412Z,1.8
2023-05-12T14:23:19.490Z,1.4
2023-05-12T14:24:39.000Z,1.8
2023-05-12T14:26:00.667Z,1.9
2023-05-12T14:27:21.743Z,1.9
2023-05-12T14:28:42.802Z,1.7
2023-05-12T14:30:03.816Z,1.8
2023-05-12T14:31:24.952Z,1.9
2023-05-12T14:32:46.012Z,1.8
2023-05-12T14:34:07.090Z,1.7
2023-05-12T14:35:28.110Z,1.8
2023-05-12T14:36:49.226Z,2
2023-05-12T14:38:10.306Z,1.7
2023-05-12T14:39:31.000Z,1.9
2023-05-12T14:40:52.438Z,1.9
2023-05-12T14:42:12.477Z,1.9
2023-05-12T14:43:33.607Z,2.1
2023-05-12T14:44:54.684Z,2
2023-05-12T14:46:15.744Z,2
2023-05-12T14:47:36.804Z,2.4
2023-05-12T14:48:57.881Z,2.5
2023-05-12T14:50:18.958Z,1.8
2023-05-12T14:51:39.960Z,2.2
2023-05-12T14:53:01.087Z,2.5
2023-05-12T14:54:22.095Z,2.2
2023-05-12T14:55:43.217Z,2.1
2023-05-12T14:57:04.231Z,1.7
2023-05-12T14:58:25.354Z,2.3
2023-05-12T14:59:45.453Z,2
2023-05-12T15:01:06.523Z,2.2
2023-05-12T15:02:27.590Z,2.2
2023-05-12T15:03:48.605Z,2.5
2023-05-12T15:05:09.733Z,2.2
2023-05-12T15:06:30.814Z,2.1
2023-05-12T15:07:51.872Z,2.2
2023-05-12T15:09:12.938Z,1.9
2023-05-12T15:10:34.013Z,2.4
2023-05-12T15:11:55.092Z,1.7
2023-05-12T15:13:16.092Z,2.1
2023-05-12T15:14:37.212Z,2.1
2023-05-12T15:15:58.298Z,2.3
2023-05-12T15:17:18.374Z,2.2
2023-05-12T15:18:39.446Z,2.2
2023-05-12T15:20:00.509Z,2.2
2023-05-12T15:21:21.578Z,2.1
2023-05-12T15:22:42.649Z,2.2
2023-05-12T15:24:03.713Z,2.3
2023-05-12T15:25:24.784Z,1.8
2023-05-12T15:26:45.846Z,2.5
2023-05-12T15:28:06.909Z,2.3
2023-05-12T15:29:27.933Z,2
2023-05-12T15:30:48.996Z,1.9
2023-05-12T15:32:10.071Z,1.9
2023-05-12T15:33:31.188Z,2.1
2023-05-12T15:34:51.204Z,2.3
2023-05-12T15:36:12.355Z,2.1
2023-05-12T15:37:33.368Z,2.1
2023-05-12T15:38:54.490Z,2
2023-05-12T15:40:15.551Z,2.1
2023-05-12T15:41:36.627Z,2.3
2023-05-12T15:42:57.631Z,2.1
2023-05-12T15:44:18.766Z,2.3
2023-05-12T15:45:39.767Z,1.9
2023-05-12T15:47:00.891Z,2.4
2023-05-12T15:48:21.901Z,2.3
2023-05-12T15:49:43.049Z,2.2
2023-05-12T15:51:04.104Z,2.1
2023-05-12T15:52:24.185Z,2.2
2023-05-12T15:53:45.257Z,1.9
2023-05-12T15:55:06.334Z,2.4
2023-05-12T15:56:27.349Z,2.2
2023-05-12T15:57:48.404Z,2.4
2023-05-12T15:59:09.486Z,2.4
2023-05-12T16:00:30.546Z,3.2
2023-05-12T16:01:51.686Z,4.1
2023-05-12T16:03:12.748Z,2.1
2023-05-12T16:04:33.801Z,2.2
2023-05-12T16:05:54.868Z,1.9
2023-05-12T16:07:15.933Z,1.8
2023-05-12T16:09:58.069Z,1.9
2023-05-12T16:11:18.101Z,2.2
2023-05-12T16:12:39.167Z,2.1
2023-05-12T16:14:00.292Z,1.9
2023-05-12T16:15:21.353Z,2.1
2023-05-12T16:16:42.363Z,2.1
2023-05-12T16:18:03.434Z,2.3
2023-05-12T16:19:24.495Z,2.6
2023-05-12T16:20:45.622Z,2.3
2023-05-12T16:22:06.701Z,2.2
2023-05-12T16:23:27.694Z,2.3
2023-05-12T16:24:48.835Z,2.6
2023-05-12T16:26:09.900Z,2.1
2023-05-12T16:27:30.978Z,2.1
2023-05-12T16:28:51.065Z,2.3
2023-05-12T16:30:12.132Z,2.1
2023-05-12T16:31:33.130Z,2.3
2023-05-12T16:32:54.266Z,1.9
2023-05-12T16:34:15.276Z,2.2
2023-05-12T16:35:36.407Z,2.3
2023-05-12T16:36:57.426Z,2
2023-05-12T16:38:18.551Z,2.1
2023-05-12T16:39:39.557Z,2.1
2023-05-12T16:41:00.688Z,2.4
2023-05-12T16:42:21.774Z,2.2
2023-05-12T16:43:42.851Z,1.9
2023-05-12T16:45:03.855Z,1.9
2023-05-12T16:46:24.018Z,2.1
2023-05-12T16:47:45.083Z,2.1
2023-05-12T16:49:06.152Z,1.9
2023-05-12T16:50:27.160Z,2
2023-05-12T16:51:48.233Z,2
2023-05-12T16:53:09.368Z,2.1
2023-05-12T16:54:30.430Z,2.3
2023-05-12T16:55:51.457Z,2.4
2023-05-12T16:57:12.566Z,2.1
2023-05-12T16:58:33.636Z,2
2023-05-12T16:59:54.711Z,2.1
2023-05-12T17:01:15.771Z,2.1
2023-05-12T17:02:36.852Z,2
2023-05-12T17:03:56.860Z,2.2
2023-05-12T17:05:17.930Z,2.2
2023-05-12T17:06:39.056Z,2
2023-05-12T17:08:00.121Z,2.3
2023-05-12T17:09:21.127Z,2.1
2023-05-12T17:12:03.329Z,2
2023-05-12T17:13:24.395Z,1.7
2023-05-12T17:14:45.399Z,2
2023-05-12T17:16:06.537Z,1.9
2023-05-12T17:17:27.537Z,1.8
2023-05-12T17:18:48.658Z,2.3
2023-05-12T17:20:09.731Z,2.4
2023-05-12T17:21:29.809Z,2.3
2023-05-12T17:22:50.886Z,2.3
2023-05-12T17:24:11.889Z,2.4
2023-05-12T17:25:32.951Z,2.7
2023-05-12T17:28:15.082Z,2.1
2023-05-12T17:29:36.226Z,2.3
2023-05-12T17:30:57.285Z,2.2
2023-05-12T17:32:18.293Z,2.4
2023-05-12T17:33:39.361Z,2.1
2023-05-12T17:35:00.485Z,2.1
2023-05-12T17:36:21.547Z,2.4
2023-05-12T17:37:42.620Z,2.3
2023-05-12T17:39:02.696Z,2
2023-05-12T17:40:23.709Z,2.4
2023-05-12T17:41:44.826Z,2.3
2023-05-12T17:43:05.838Z,3.2
2023-05-12T17:44:26.913Z,2.3
2023-05-12T17:45:48.020Z,2.1
2023-05-12T17:47:09.087Z,2.3
2023-05-12T17:48:30.172Z,2.1
2023-05-12T17:49:51.170Z,2.3
2023-05-12T17:51:12.313Z,2.1
2023-05-12T17:52:33.365Z,2.3
2023-05-12T17:53:54.442Z,2.1
2023-05-12T17:55:15.509Z,2
2023-05-12T17:56:35.523Z,2.3
2023-05-12T17:57:56.657Z,2
2023-05-12T17:59:17.724Z,1.9
2023-05-12T18:00:38.737Z,2.1
2023-05-12T18:01:59.810Z,2.1
2023-05-12T18:03:20.924Z,2.2
2023-05-12T18:04:41.946Z,2.5
2023-05-12T18:06:03.055Z,2.3
2023-05-12T18:07:24.120Z,2.2
2023-05-12T18:08:45.200Z,2.6
2023-05-12T18:10:06.200Z,2.4
2023-05-12T18:11:27.329Z,2.1
2023-05-12T18:12:48.392Z,2.4
2023-05-12T18:14:09.584Z,2.3
2023-05-12T18:15:30.647Z,2.2
2023-05-12T18:16:51.714Z,2
2023-05-12T18:18:12.795Z,1.9
2023-05-12T18:19:33.859Z,1.7
2023-05-12T18:20:53.951Z,2
2023-05-12T18:22:15.020Z,2.3
2023-05-12T18:23:36.091Z,2.2
2023-05-12T18:24:57.098Z,1.9
2023-05-12T18:26:18.203Z,2.2
2023-05-12T18:27:39.282Z,2.4
2023-05-12T18:29:00.345Z,2.6
2023-05-12T18:30:21.423Z,2.6
2023-05-12T18:31:42.478Z,2.4
2023-05-12T18:33:03.537Z,2.3
2023-05-12T18:35:45.680Z,2.2
2023-05-12T18:37:06.739Z,2.3
2023-05-12T18:38:26.768Z,2.5
2023-05-12T18:39:47.887Z,2.2
2023-05-12T18:41:08.914Z,2.1
2023-05-12T18:42:30.023Z,2
2023-05-12T18:43:51.092Z,2.2
2023-05-12T18:45:12.114Z,2.4
2023-05-12T18:46:33.236Z,2.3
2023-05-12T18:47:54.303Z,2.5
2023-05-12T18:49:15.361Z,2.6
2023-05-12T18:50:36.427Z,2.4
2023-05-12T18:51:57.487Z,2.6
2023-05-12T18:53:18.565Z,2.7
2023-05-12T18:54:39.617Z,2.8
2023-05-12T18:55:59.708Z,2.6
2023-05-12T18:57:20.785Z,2.4
2023-05-12T18:58:41.783Z,2.8
2023-05-12T19:00:02.905Z,3.5
2023-05-12T19:01:23.965Z,2.9
2023-05-12T19:02:44.980Z,3.3
2023-05-12T19:04:06.101Z,2.8
2023-05-12T19:05:27.118Z,3.4
2023-05-12T19:06:48.228Z,3.1
2023-05-12T19:08:09.296Z,3.2
2023-05-12T19:09:30.305Z,3.5
2023-05-12T19:10:51.431Z,3.1
2023-05-12T19:12:12.488Z,3.9
2023-05-12T19:13:32.571Z,3.6
2023-05-12T19:14:53.644Z,3.6
2023-05-12T19:17:35.771Z,4.4
2023-05-12T19:18:56.828Z,4.9
2023-05-12T19:20:17.958Z,5.2
2023-05-12T19:21:39.067Z,5.7
2023-05-12T19:23:00.173Z,5.9
2023-05-12T19:24:21.286Z,6
2023-05-12T19:25:42.361Z,6.5
2023-05-12T19:27:03.409Z,5.6
2023-05-12T19:28:24.532Z,5.1
2023-05-12T19:29:45.643Z,4.8
2023-05-12T19:31:05.753Z,4.9
2023-05-12T19:32:26.864Z,3.8
2023-05-12T19:33:47.979Z,3.4
2023-05-12T19:35:09.084Z,3.6
2023-05-12T19:36:30.203Z,3.9
2023-05-12T19:37:51.311Z,3.7
2023-05-12T19:39:12.420Z,3.6
2023-05-12T19:40:33.536Z,3.3
2023-05-12T19:41:54.580Z,2.7
2023-05-12T19:43:15.742Z,3.2
2023-05-12T19:44:36.854Z,3
2023-05-12T19:45:57.975Z,2.9
2023-05-12T19:47:19.091Z,3.3
2023-05-12T19:48:39.202Z,3.5
2023-05-12T19:50:00.259Z,3.3
2023-05-12T19:51:21.429Z,3.1
2023-05-12T19:52:42.542Z,3.6
2023-05-12T19:54:03.632Z,3.8
2023-05-12T19:55:24.745Z,3.8
2023-05-12T19:56:45.862Z,3.9
2023-05-12T19:58:06.974Z,3.9
2023-05-12T19:59:28.079Z,3.8
2023-05-12T20:00:49.204Z,4.3
2023-05-12T20:02:10.236Z,3.4
2023-05-12T20:03:31.419Z,3.8
2023-05-12T20:04:52.522Z,3
2023-05-12T20:06:12.643Z,3
2023-05-12T20:07:33.747Z,2.8
2023-05-12T20:08:54.868Z,2.9
2023-05-12T20:10:15.983Z,2.7
2023-05-12T20:11:37.079Z,2.8
2023-05-12T20:12:58.193Z,3.6
2023-05-12T20:14:19.302Z,3.8
2023-05-12T20:15:40.410Z,3.2
2023-05-12T20:17:01.505Z,3.2
2023-05-12T20:18:22.616Z,4.7
2023-05-12T20:19:43.682Z,4.6
2023-05-12T20:21:04.851Z,4.2
2023-05-12T20:22:25.943Z,4.3
2023-05-12T20:23:46.078Z,4.1
2023-05-12T20:25:07.186Z,4.3
2023-05-12T20:26:28.295Z,4.3
2023-05-12T20:27:49.412Z,4.3
2023-05-12T20:29:10.527Z,3.9
2023-05-12T20:30:31.633Z,3.8
2023-05-12T20:31:52.754Z,4.4
2023-05-12T20:33:13.856Z,4.1
2023-05-12T20:34:34.957Z,3.9
2023-05-12T20:35:56.065Z,4.4
2023-05-12T20:37:17.182Z,4
2023-05-12T20:38:38.292Z,3.8
2023-05-12T20:39:59.341Z,3.8
2023-05-12T20:41:20.436Z,4.1
2023-05-12T20:42:40.566Z,4
2023-05-12T20:44:01.683Z,4
2023-05-12T20:45:22.782Z,3.8
2023-05-12T20:46:43.896Z,4
2023-05-12T20:48:04.997Z,4
2023-05-12T20:49:26.111Z,4.2
2023-05-12T20:50:47.230Z,3.7
2023-05-12T20:52:08.337Z,3.9
2023-05-12T20:53:29.425Z,4.3
2023-05-12T20:54:50.548Z,3.9
2023-05-12T20:56:11.643Z,4
2023-05-12T20:57:32.758Z,4
2023-05-12T20:58:53.861Z,4.2
2023-05-12T21:00:13.987Z,3.8
2023-05-12T21:01:35.093Z,4.1
2023-05-12T21:02:56.203Z,4.1
2023-05-12T21:04:17.314Z,4.3
2023-05-12T21:05:38.427Z,3.8
2023-05-12T21:06:59.531Z,4.1
2023-05-12T21:08:20.647Z,4.1
2023-05-12T21:09:41.761Z,4.2
2023-05-12T21:11:02.859Z,4.1
2023-05-12T21:12:23.976Z,3.6
2023-05-12T21:13:45.075Z,4
2023-05-12T21:15:06.190Z,4.2
2023-05-12T21:16:27.308Z,4.1
2023-05-12T21:17:47.424Z,4
2023-05-12T21:19:08.541Z,4.1
2023-05-12T21:20:29.646Z,4.5
2023-05-12T21:21:50.768Z,4.1
2023-05-12T21:23:11.875Z,4
2023-05-12T21:24:32.962Z,4.4
2023-05-12T21:25:54.080Z,4.1
2023-05-12T21:27:15.179Z,4.5
2023-05-12T21:28:36.295Z,3.9
2023-05-12T21:29:57.398Z,4.1
2023-05-12T21:31:18.508Z,4.3
2023-05-12T21:32:39.625Z,4.2
2023-05-12T21:34:00.726Z,4.4
2023-05-12T21:35:20.859Z,4.4
2023-05-12T21:36:41.965Z,4
2023-05-12T21:38:03.080Z,4.5
2023-05-12T21:39:24.174Z,4.3
2023-05-12T21:40:45.299Z,4.6
2023-05-12T21:42:06.396Z,4.4
2023-05-12T21:43:27.500Z,4.4
2023-05-12T21:44:48.618Z,4.7
2023-05-12T21:47:30.826Z,4.5
2023-05-12T21:48:51.942Z,4.2
2023-05-12T21:50:13.047Z,4.6
2023-05-12T21:51:34.165Z,4.5
2023-05-12T21:52:54.290Z,5
2023-05-12T21:54:15.391Z,4.9
2023-05-12T21:55:36.504Z,5.2
2023-05-12T21:56:57.609Z,5
2023-05-12T21:58:18.725Z,4.9
2023-05-12T21:59:39.828Z,4.4
2023-05-12T22:01:00.927Z,4.8
2023-05-12T22:02:22.040Z,4.5
2023-05-12T22:03:43.142Z,4.9
2023-05-12T22:05:04.262Z,5
2023-05-12T22:06:25.363Z,5.1
2023-05-12T22:07:46.472Z,4.4
2023-05-12T22:09:07.582Z,4.7
2023-05-12T22:10:27.716Z,4.1
2023-05-12T22:11:48.821Z,4.6
2023-05-12T22:13:09.918Z,4
2023-05-12T22:14:31.040Z,4.4
2023-05-12T22:15:52.130Z,4.5
2023-05-12T22:17:13.252Z,4.6
2023-05-12T22:18:34.364Z,4.4
2023-05-12T22:19:55.455Z,3.9
2023-05-12T22:21:16.576Z,4.3
2023-05-12T22:22:37.675Z,4.5
2023-05-12T22:23:58.794Z,4.4
2023-05-12T22:25:19.902Z,4.1
2023-05-12T22:26:41.001Z,4
2023-05-12T22:28:01.117Z,4.4
2023-05-12T22:29:22.232Z,4.2
2023-05-12T22:30:43.331Z,4.3
2023-05-12T22:32:04.468Z,4.4
2023-05-12T22:33:25.564Z,4.1
2023-05-12T22:34:46.687Z,4.5
2023-05-12T22:36:07.782Z,4.7
2023-05-12T22:37:28.897Z,4.4
2023-05-12T22:38:49.999Z,5
2023-05-12T22:40:11.118Z,4.1
2023-05-12T22:41:32.222Z,4
2023-05-12T22:42:53.332Z,4.1
2023-05-12T22:44:14.441Z,3.9
2023-05-12T22:45:34.559Z,4.5
2023-05-12T22:46:55.669Z,4.5
2023-05-12T22:48:16.783Z,4.5
2023-05-12T22:49:37.888Z,4.2
2023-05-12T22:50:59.009Z,4.1
2023-05-12T22:52:19.121Z,4.8
2023-05-12T22:53:40.232Z,4.5
2023-05-12T22:55:01.336Z,4.7
2023-05-12T22:56:22.452Z,4.2
2023-05-12T22:57:43.557Z,4.1
2023-05-12T22:59:04.670Z,4.3
2023-05-12T23:00:25.769Z,4.5
2023-05-12T23:01:46.877Z,4.8
2023-05-12T23:03:07.991Z,4.8
2023-05-12T23:04:29.094Z,4.7
2023-05-12T23:05:50.222Z,4.7
2023-05-12T23:07:11.000Z,5
2023-05-12T23:08:32.425Z,4.5
2023-05-12T23:09:52.543Z,5.2
2023-05-12T23:11:13.650Z,5.6
2023-05-12T23:12:34.771Z,4.5
2023-05-12T23:13:55.871Z,5.2
2023-05-12T23:15:16.976Z,4.5
2023-05-12T23:16:38.096Z,4.9
2023-05-12T23:17:59.210Z,5.3
2023-05-12T23:19:20.308Z,4.8
2023-05-12T23:20:41.429Z,4.7
2023-05-12T23:22:02.512Z,4.6
2023-05-12T23:37:23.492Z,2.7
2023-05-12T23:52:44.459Z,4
